Time;durP1;ratioP1;P1;durP2;ratioP2;P2;SDS_P1;SDS_P2;PMS_P1;PMS_P2;Temp;Humidity;BMP_temperature;BMP_pressure;BME280_temperature;BME280_humidity;BME280_pressure;Samples;Min_cycle;Max_cycle;Signal;HPM_P1;HPM_P2
2022/09/25 00:00:29;;;;;;;6.18;3.63;;;13.30;86.80;;;;;;5094655;28;20103;-38
2022/09/25 00:02:55;;;;;;;13.85;3.40;;;13.30;86.80;;;;;;5094222;28;20058;-38
2022/09/25 00:05:20;;;;;;;12.68;3.90;;;13.30;86.80;;;;;;5094285;28;20365;-38
2022/09/25 00:07:46;;;;;;;14.82;4.68;;;13.30;86.80;;;;;;5095278;28;20409;-38
2022/09/25 00:10:12;;;;;;;11.95;4.13;;;13.30;86.90;;;;;;5094460;28;20027;-39
2022/09/25 00:12:37;;;;;;;9.45;3.17;;;13.30;86.80;;;;;;5094278;28;20020;-38
2022/09/25 00:15:04;;;;;;;9.30;3.53;;;13.30;87.00;;;;;;5094313;28;20035;-38
2022/09/25 00:17:30;;;;;;;16.88;4.05;;;13.30;87.10;;;;;;5094105;28;20364;-38
2022/09/25 00:19:55;;;;;;;13.00;4.93;;;13.30;87.20;;;;;;5094071;28;20016;-38
2022/09/25 00:22:23;;;;;;;9.63;4.05;;;13.30;87.50;;;;;;5094057;28;20028;-39
2022/09/25 00:24:49;;;;;;;11.63;4.68;;;13.30;87.60;;;;;;5092682;28;20024;-38
2022/09/25 00:27:17;;;;;;;9.88;4.05;;;13.30;87.70;;;;;;5094170;28;20357;-39
2022/09/25 00:29:43;;;;;;;14.63;4.30;;;13.30;87.70;;;;;;5094120;28;20134;-38
2022/09/25 00:32:10;;;;;;;11.10;3.53;;;13.30;87.60;;;;;;5093640;28;20044;-39
2022/09/25 00:34:39;;;;;;;8.73;3.83;;;13.30;87.70;;;;;;5093721;28;20075;-38
2022/09/25 00:37:05;;;;;;;8.73;4.35;;;13.20;87.60;;;;;;5093706;28;20409;-38
2022/09/25 00:39:32;;;;;;;4.00;3.10;;;13.20;87.80;;;;;;5092339;28;20460;-38
2022/09/25 00:41:58;;;;;;;10.55;3.78;;;13.20;87.60;;;;;;5093162;28;20035;-38
2022/09/25 00:45:00;;;;;;;12.25;3.45;;;13.20;87.60;;;;;;5093685;28;20032;-39
2022/09/25 00:47:43;;;;;;;9.60;2.85;;;13.20;87.50;;;;;;5011812;28;20039;-39
2022/09/25 00:50:29;;;;;;;5.38;2.92;;;13.30;87.60;;;;;;5084311;28;20487;-39
2022/09/25 00:53:20;;;;;;;6.78;3.25;;;13.10;87.50;;;;;;5093787;28;20028;-39
2022/09/25 00:55:46;;;;;;;7.78;3.15;;;13.20;87.60;;;;;;5082713;28;20063;-39
2022/09/25 00:58:15;;;;;;;10.43;4.45;;;13.20;87.40;;;;;;5093526;28;20020;-39
2022/09/25 01:00:41;;;;;;;9.38;2.75;;;13.20;87.40;;;;;;5093467;28;20024;-38
2022/09/25 01:03:07;;;;;;;7.97;3.08;;;13.10;87.50;;;;;;5093126;28;20020;-38
2022/09/25 01:05:36;;;;;;;12.23;2.50;;;13.10;87.50;;;;;;5093161;28;20032;-38
2022/09/25 01:08:05;;;;;;;8.52;3.25;;;13.10;87.40;;;;;;5093384;28;20375;-38
2022/09/25 01:10:31;;;;;;;14.95;3.35;;;13.00;87.40;;;;;;5091539;28;20433;-38
2022/09/25 01:12:59;;;;;;;7.55;2.78;;;13.00;87.40;;;;;;5092873;28;20080;-39
2022/09/25 01:15:50;;;;;;;13.05;2.13;;;13.00;87.40;;;;;;5091711;28;20035;-38
2022/09/25 01:18:38;;;;;;;12.85;3.78;;;13.00;87.30;;;;;;5093219;28;20059;-39
2022/09/25 01:21:32;;;;;;;12.23;2.80;;;13.00;87.30;;;;;;5092883;28;20056;-38
2022/09/25 01:24:25;;;;;;;6.30;2.92;;;13.00;87.40;;;;;;5092809;28;20140;-37
2022/09/25 01:27:16;;;;;;;8.73;2.30;;;13.10;87.40;;;;;;5093085;28;20032;-37
2022/09/25 01:30:02;;;;;;;6.55;2.50;;;13.10;87.40;;;;;;5092741;28;20118;-38
2022/09/25 01:32:37;;;;;;;8.57;2.90;;;13.00;87.50;;;;;;5092860;28;20058;-38
2022/09/25 01:35:03;;;;;;;10.73;2.08;;;13.00;87.70;;;;;;5091517;28;20031;-38
2022/09/25 01:37:38;;;;;;;11.55;2.90;;;13.00;87.50;;;;;;5092808;28;20414;-38
2022/09/25 01:40:26;;;;;;;10.63;3.03;;;13.10;87.50;;;;;;5092216;28;20050;-38
2022/09/25 01:42:59;;;;;;;9.60;2.47;;;13.00;87.40;;;;;;5092943;28;20020;-41
2022/09/25 01:45:35;;;;;;;6.68;2.45;;;12.90;87.50;;;;;;5093103;28;20149;-38
2022/09/25 01:48:04;;;;;;;6.60;2.58;;;12.90;87.60;;;;;;5092863;28;20028;-37
2022/09/25 01:50:57;;;;;;;4.75;1.90;;;12.90;87.50;;;;;;5092710;28;20028;-37
2022/09/25 01:53:28;;;;;;;5.65;1.98;;;12.90;87.40;;;;;;5079185;28;20506;-37
2022/09/25 01:55:59;;;;;;;5.80;2.17;;;12.90;87.60;;;;;;5097066;28;20047;-38
2022/09/25 01:58:30;;;;;;;8.15;1.48;;;12.90;87.20;;;;;;5097023;28;20027;-39
2022/09/25 02:01:05;;;;;;;6.82;2.15;;;12.80;87.20;;;;;;5096874;28;20028;-40
2022/09/25 02:03:56;;;;;;;7.65;1.48;;;12.80;87.30;;;;;;5097291;28;20191;-39
2022/09/25 02:06:23;;;;;;;9.90;2.22;;;12.80;87.30;;;;;;5083344;28;20033;-38
2022/09/25 02:09:02;;;;;;;5.03;2.00;;;12.80;87.20;;;;;;5096568;28;20093;-38
2022/09/25 02:11:34;;;;;;;13.57;2.28;;;12.70;87.30;;;;;;5096902;28;20028;-38
2022/09/25 02:14:21;;;;;;;21.83;2.67;;;12.70;87.60;;;;;;5096716;28;20133;-40
2022/09/25 02:16:51;;;;;;;14.18;1.90;;;12.60;88.00;;;;;;5096641;28;20165;-39
2022/09/25 02:22:04;;;;;;;5.28;2.20;;;12.50;88.30;;;;;;5096423;28;20077;-38
2022/09/25 02:24:36;;;;;;;6.00;1.52;;;12.40;88.50;;;;;;5096846;28;20464;-38
2022/09/25 02:27:02;;;;;;;7.28;1.58;;;12.40;88.40;;;;;;5095028;28;20053;-38
2022/09/25 02:29:29;;;;;;;8.63;2.28;;;12.40;88.40;;;;;;5096212;28;20024;-38
2022/09/25 02:31:58;;;;;;;11.27;2.00;;;12.40;88.50;;;;;;5096386;28;20048;-38
2022/09/25 02:34:24;;;;;;;7.55;1.67;;;12.40;88.30;;;;;;5096293;28;20070;-39
2022/09/25 02:36:50;;;;;;;8.88;2.05;;;12.40;88.30;;;;;;5094761;28;20035;-39
2022/09/25 02:39:19;;;;;;;7.88;1.90;;;12.40;88.20;;;;;;5095997;28;20027;-38
2022/09/25 02:42:12;;;;;;;8.65;1.67;;;12.50;87.80;;;;;;5096083;28;20112;-38
2022/09/25 02:44:55;;;;;;;4.63;2.08;;;12.50;87.60;;;;;;5096247;28;20031;-38
2022/09/25 02:47:42;;;;;;;11.18;2.00;;;12.60;87.40;;;;;;5096096;28;20116;-39
2022/09/25 02:50:25;;;;;;;11.27;1.80;;;12.60;86.90;;;;;;5095895;28;20031;-38
2022/09/25 02:53:03;;;;;;;7.25;2.25;;;12.60;86.80;;;;;;5096185;28;20035;-39
2022/09/25 02:55:52;;;;;;;10.55;2.75;;;12.60;86.50;;;;;;5096027;28;20021;-38
2022/09/25 02:58:29;;;;;;;3.75;1.92;;;12.70;86.30;;;;;;5095817;28;20038;-39
2022/09/25 03:00:56;;;;;;;3.40;1.55;;;12.60;86.30;;;;;;5095854;28;20074;-38
2022/09/25 03:03:24;;;;;;;5.45;2.08;;;12.60;86.30;;;;;;5095883;28;20048;-39
2022/09/25 03:05:54;;;;;;;4.75;1.40;;;12.60;86.30;;;;;;5094206;28;20087;-38
2022/09/25 03:08:41;;;;;;;3.53;1.85;;;12.60;86.60;;;;;;5095986;28;20555;-38
2022/09/25 03:11:09;;;;;;;7.38;1.77;;;12.50;86.70;;;;;;5095690;28;20096;-39
2022/09/25 03:13:36;;;;;;;5.82;1.85;;;12.50;87.00;;;;;;5095655;28;20043;-38
2022/09/25 03:16:42;;;;;;;10.15;2.30;;;12.40;87.30;;;;;;5095747;28;20032;-40
2022/09/25 03:19:08;;;;;;;5.18;2.33;;;12.30;87.40;;;;;;5091254;28;20046;-39
2022/09/25 03:21:33;;;;;;;4.20;1.55;;;12.30;87.40;;;;;;5095550;28;20028;-38
2022/09/25 03:23:59;;;;;;;5.90;1.90;;;12.30;87.30;;;;;;5095445;28;20066;-38
2022/09/25 03:26:26;;;;;;;5.20;1.80;;;12.30;87.20;;;;;;5095410;28;20066;-38
2022/09/25 03:28:53;;;;;;;8.20;1.65;;;12.30;87.10;;;;;;5095635;28;20111;-39
2022/09/25 03:31:18;;;;;;;7.70;3.03;;;12.30;87.10;;;;;;5093958;28;20050;-39
2022/09/25 03:33:45;;;;;;;15.60;1.70;;;12.30;87.10;;;;;;5095130;28;20369;-38
2022/09/25 03:36:19;;;;;;;14.57;2.38;;;12.30;86.80;;;;;;5095380;28;20241;-38
2022/09/25 03:38:48;;;;;;;7.07;1.83;;;12.20;86.70;;;;;;5093891;28;20024;-38
2022/09/25 03:41:18;;;;;;;6.93;2.40;;;12.20;86.80;;;;;;5093875;28;20025;-38
2022/09/25 03:43:46;;;;;;;4.78;1.58;;;12.20;86.70;;;;;;5095081;28;20145;-39
2022/09/25 03:46:13;;;;;;;8.68;2.53;;;12.20;86.60;;;;;;5095832;28;20039;-38
2022/09/25 03:48:40;;;;;;;5.63;1.77;;;12.20;86.50;;;;;;5095105;28;20099;-39
2022/09/25 03:51:07;;;;;;;5.18;1.77;;;12.30;86.50;;;;;;5093827;28;20055;-38
2022/09/25 03:53:34;;;;;;;11.80;2.75;;;12.30;86.50;;;;;;5095062;28;20024;-38
2022/09/25 03:56:01;;;;;;;8.57;1.60;;;12.30;86.40;;;;;;5093400;28;20027;-38
2022/09/25 03:58:28;;;;;;;9.18;2.28;;;12.30;86.40;;;;;;5094469;28;20012;-38
2022/09/25 04:00:57;;;;;;;10.73;2.08;;;12.30;86.20;;;;;;5093112;28;20480;-39
2022/09/25 04:03:27;;;;;;;4.70;1.85;;;12.20;86.40;;;;;;5094809;28;20091;-39
2022/09/25 04:05:54;;;;;;;7.63;2.20;;;12.20;86.40;;;;;;5094550;28;20036;-39
2022/09/25 04:08:21;;;;;;;10.70;1.95;;;12.20;86.30;;;;;;5094547;28;20764;-39
2022/09/25 04:10:47;;;;;;;7.68;1.73;;;12.20;86.20;;;;;;5094502;28;20032;-38
2022/09/25 04:13:13;;;;;;;17.88;2.88;;;12.30;86.10;;;;;;5093949;28;20055;-38
2022/09/25 04:15:41;;;;;;;7.90;2.33;;;12.30;86.10;;;;;;5093567;28;20017;-39
2022/09/25 04:18:07;;;;;;;9.80;2.35;;;12.20;86.10;;;;;;5093836;28;20067;-39
2022/09/25 04:20:34;;;;;;;9.63;2.00;;;12.20;85.90;;;;;;5093996;28;20037;-38
2022/09/25 04:22:59;;;;;;;5.20;1.77;;;12.20;85.90;;;;;;5092924;28;20034;-38
2022/09/25 04:25:25;;;;;;;3.20;1.60;;;12.10;85.80;;;;;;5093869;28;20406;-39
2022/09/25 04:27:54;;;;;;;6.57;1.58;;;12.20;85.70;;;;;;5094148;28;20020;-39
2022/09/25 04:30:29;;;;;;;7.13;2.38;;;12.10;85.70;;;;;;5094575;28;20046;-39
2022/09/25 04:35:40;;;;;;;7.70;2.05;;;12.00;85.70;;;;;;5093762;28;20038;-39
2022/09/25 04:38:06;;;;;;;10.52;1.85;;;12.10;85.80;;;;;;5093739;28;20016;-45
2022/09/25 04:40:32;;;;;;;5.47;2.15;;;12.00;85.90;;;;;;5093714;28;20024;-39
2022/09/25 04:42:59;;;;;;;9.52;2.53;;;12.00;85.80;;;;;;5093651;28;20091;-39
2022/09/25 04:45:26;;;;;;;7.95;1.85;;;12.00;85.70;;;;;;5094024;28;20031;-38
2022/09/25 04:47:53;;;;;;;11.52;2.70;;;12.00;85.80;;;;;;5093662;28;20024;-39
2022/09/25 04:50:22;;;;;;;9.85;2.28;;;12.00;85.70;;;;;;5093785;28;20028;-38
2022/09/25 04:52:50;;;;;;;3.65;1.60;;;11.90;85.60;;;;;;5093722;28;20031;-39
2022/09/25 04:55:16;;;;;;;3.83;1.20;;;11.90;85.80;;;;;;5092655;28;20365;-38
2022/09/25 04:57:42;;;;;;;13.82;2.10;;;11.80;85.80;;;;;;5093904;28;20357;-39
2022/09/25 05:00:08;;;;;;;6.68;1.92;;;11.80;85.90;;;;;;5093587;28;20099;-38
2022/09/25 05:02:35;;;;;;;6.80;1.95;;;11.80;86.00;;;;;;5093643;28;20024;-38
2022/09/25 05:05:00;;;;;;;8.35;2.13;;;11.80;86.20;;;;;;5093684;28;20052;-38
2022/09/25 17:41:25;;;;;;;7.07;1.83;;;14.00;70.00;;;;;;5090409;27;20381;-38
2022/09/25 17:43:51;;;;;;;7.93;1.63;;;14.00;70.00;;;;;;5090210;28;20017;-38
2022/09/25 17:46:19;;;;;;;5.13;1.00;;;14.10;69.70;;;;;;5090257;28;20027;-39
2022/09/25 17:48:45;;;;;;;3.25;1.10;;;14.20;69.70;;;;;;5088419;28;20060;-38
2022/09/25 17:51:23;;;;;;;5.95;2.47;;;14.20;69.70;;;;;;5090002;28;20027;-40
2022/09/25 17:53:51;;;;;;;3.90;1.17;;;14.20;69.60;;;;;;5090109;28;20020;-38
2022/09/25 17:56:18;;;;;;;3.85;1.67;;;14.30;69.70;;;;;;5088396;28;20453;-38
2022/09/25 17:58:44;;;;;;;6.57;1.40;;;14.30;69.40;;;;;;5090303;28;20418;-39
2022/09/25 18:01:20;;;;;;;6.70;2.58;;;14.20;69.80;;;;;;5089926;28;20024;-39
2022/09/25 18:03:56;;;;;;;2.85;1.27;;;14.20;70.00;;;;;;5089901;28;20020;-39
2022/09/25 18:06:24;;;;;;;3.33;1.55;;;14.10;70.20;;;;;;5089983;28;20020;-39
2022/09/25 18:08:53;;;;;;;4.95;1.23;;;14.10;70.50;;;;;;5089541;28;20025;-39
2022/09/25 18:11:19;;;;;;;4.10;1.13;;;14.10;70.80;;;;;;5090347;28;20413;-39
2022/09/25 18:13:45;;;;;;;3.90;1.08;;;14.00;71.00;;;;;;5089377;28;20058;-38
2022/09/25 18:16:17;;;;;;;4.25;1.55;;;14.00;71.20;;;;;;5089368;28;20111;-38
2022/09/25 18:24:13;;;;;;;3.83;1.30;;;13.90;71.90;;;;;;5089289;28;20384;-38
2022/09/25 18:26:41;;;;;;;4.82;2.05;;;13.90;72.20;;;;;;5089785;28;20012;-39
2022/09/25 18:29:06;;;;;;;7.53;1.55;;;14.00;72.00;;;;;;5089096;28;20024;-39
2022/09/25 18:31:32;;;;;;;1.98;1.70;;;14.00;71.80;;;;;;5089278;28;20430;-39
2022/09/25 18:33:58;;;;;;;6.18;1.55;;;14.00;72.10;;;;;;5089456;28;20021;-39
2022/09/25 18:36:24;;;;;;;7.10;1.92;;;14.00;72.10;;;;;;5089174;28;20024;-38
2022/09/25 18:38:49;;;;;;;3.42;1.40;;;14.00;72.30;;;;;;5088964;28;20496;-38
2022/09/25 18:41:15;;;;;;;3.53;1.42;;;14.00;72.40;;;;;;5088947;28;20124;-40
2022/09/25 18:43:42;;;;;;;5.32;2.10;;;14.10;72.20;;;;;;5089051;28;20025;-39
2022/09/25 18:46:07;;;;;;;5.00;1.92;;;14.00;72.20;;;;;;5088760;28;20020;-39
2022/09/25 18:48:34;;;;;;;9.48;2.58;;;14.00;72.50;;;;;;5088846;28;20070;-39
2022/09/25 18:51:00;;;;;;;1.98;1.30;;;13.80;73.10;;;;;;5083290;28;20024;-39
2022/09/25 18:53:26;;;;;;;6.88;1.92;;;13.90;72.90;;;;;;5075251;28;20070;-39
2022/09/25 18:55:53;;;;;;;6.38;1.90;;;14.00;73.00;;;;;;5075475;28;20024;-39
2022/09/25 18:58:19;;;;;;;3.45;1.83;;;13.90;73.10;;;;;;5075517;28;20028;-39
2022/09/25 19:00:45;;;;;;;3.15;1.90;;;13.80;73.60;;;;;;5074861;28;20055;-38
2022/09/25 19:03:11;;;;;;;5.13;2.40;;;13.70;74.10;;;;;;5075012;28;20071;-38
2022/09/25 19:05:37;;;;;;;4.78;1.98;;;13.60;74.70;;;;;;5075333;28;20029;-39
2022/09/25 19:08:03;;;;;;;9.27;2.05;;;13.50;75.30;;;;;;5073767;28;20028;-38
2022/09/25 19:10:30;;;;;;;2.50;2.13;;;13.50;75.60;;;;;;5074987;28;20230;-39
2022/09/25 19:12:55;;;;;;;5.85;1.80;;;13.60;75.30;;;;;;5074911;28;20119;-42
2022/09/25 19:15:22;;;;;;;3.63;1.65;;;13.40;75.80;;;;;;5075012;28;20399;-39
2022/09/25 19:17:47;;;;;;;11.10;2.30;;;13.30;76.40;;;;;;5073399;28;20078;-39
2022/09/25 19:20:13;;;;;;;3.67;2.20;;;13.30;76.70;;;;;;5074522;28;20032;-38
2022/09/25 19:22:43;;;;;;;3.65;1.50;;;13.30;76.80;;;;;;5073364;28;20108;-38
2022/09/25 19:25:10;;;;;;;3.00;1.30;;;13.20;77.20;;;;;;5074818;28;20021;-39
2022/09/25 19:27:35;;;;;;;2.65;1.70;;;13.20;77.40;;;;;;5074433;28;20048;-38
2022/09/25 19:30:01;;;;;;;3.67;1.65;;;13.10;77.50;;;;;;5074694;28;20039;-39
2022/09/25 19:32:27;;;;;;;4.97;2.42;;;13.10;77.60;;;;;;5074735;28;20028;-39
2022/09/25 19:34:53;;;;;;;3.00;1.70;;;13.10;77.80;;;;;;5074234;28;20025;-39
2022/09/25 19:37:22;;;;;;;2.35;1.38;;;13.10;77.70;;;;;;5074419;28;20025;-39
2022/09/25 19:42:36;;;;;;;2.58;1.38;;;13.00;78.00;;;;;;5075221;28;20090;-40
2022/09/25 19:45:02;;;;;;;4.45;1.05;;;13.00;77.80;;;;;;5074485;28;20017;-40
2022/09/25 19:47:27;;;;;;;2.42;1.70;;;12.90;77.70;;;;;;5074494;28;20024;-40
2022/09/25 19:49:53;;;;;;;1.50;1.40;;;12.80;77.90;;;;;;5075121;28;20028;-38
2022/09/25 19:52:21;;;;;;;5.00;1.58;;;12.80;78.40;;;;;;5074480;28;20123;-39
2022/09/25 19:54:47;;;;;;;5.25;1.33;;;12.70;78.90;;;;;;5074441;28;20107;-38
2022/09/25 19:57:13;;;;;;;10.50;1.73;;;12.60;79.20;;;;;;5074420;28;20029;-38
2022/09/25 19:59:39;;;;;;;3.63;1.58;;;12.50;79.30;;;;;;5074458;28;20024;-38
2022/09/25 20:02:06;;;;;;;3.97;1.27;;;12.40;79.70;;;;;;5074117;28;20028;-38
2022/09/25 20:04:32;;;;;;;3.38;1.48;;;12.30;79.90;;;;;;5073930;28;20020;-38
2022/09/25 20:06:58;;;;;;;5.47;1.65;;;12.40;79.80;;;;;;5074276;28;20403;-38
2022/09/25 20:09:26;;;;;;;3.97;1.70;;;12.30;79.80;;;;;;5072765;28;20107;-39
2022/09/25 20:11:52;;;;;;;1.20;1.08;;;12.30;80.50;;;;;;5072531;28;20032;-38
2022/09/25 20:14:24;;;;;;;4.88;1.80;;;12.20;80.90;;;;;;5073830;28;20025;-38
2022/09/25 20:16:54;;;;;;;3.65;1.30;;;12.20;80.90;;;;;;5074354;28;20032;-38
2022/09/25 20:19:20;;;;;;;1.85;1.35;;;12.10;81.10;;;;;;5073696;28;20507;-38
2022/09/25 20:21:46;;;;;;;3.55;1.70;;;12.00;81.40;;;;;;5073679;28;20024;-40
2022/09/25 20:24:12;;;;;;;3.33;1.80;;;11.90;81.40;;;;;;5073779;28;20074;-38
2022/09/25 20:26:38;;;;;;;6.22;2.58;;;11.80;81.80;;;;;;5073756;28;20017;-39
2022/09/25 20:29:13;;;;;;;4.82;1.80;;;11.70;82.00;;;;;;5073728;28;20029;-40
2022/09/25 20:31:41;;;;;;;6.95;2.00;;;11.70;81.80;;;;;;5073425;28;20029;-40
2022/09/25 20:34:13;;;;;;;3.65;2.17;;;11.70;81.80;;;;;;5073509;28;20469;-38
2022/09/25 20:36:39;;;;;;;2.95;1.95;;;11.70;81.50;;;;;;5073705;28;20032;-37
2022/09/25 20:39:05;;;;;;;7.07;1.90;;;11.70;81.60;;;;;;5073295;28;20044;-38
2022/09/25 20:41:32;;;;;;;3.20;1.98;;;11.70;81.30;;;;;;5073674;28;20027;-37
2022/09/25 20:43:57;;;;;;;3.08;1.90;;;11.60;81.40;;;;;;5073468;28;20498;-37
2022/09/25 20:46:25;;;;;;;6.75;2.08;;;11.70;81.50;;;;;;5073478;28;20056;-37
2022/09/25 20:48:52;;;;;;;3.05;1.92;;;11.70;81.70;;;;;;5073058;28;20036;-38
2022/09/25 20:51:20;;;;;;;5.60;2.15;;;11.60;82.10;;;;;;5073236;28;20060;-38
2022/09/25 20:53:50;;;;;;;3.25;2.22;;;11.60;82.40;;;;;;5073158;28;20029;-37
2022/09/25 20:56:16;;;;;;;;;;;11.50;82.70;;;;;;5073475;28;20123;-38
2022/09/25 20:58:43;;;;;;;5.32;1.92;;;11.40;82.90;;;;;;5071545;28;19954;-38
2022/09/25 21:01:14;;;;;;;4.22;2.15;;;11.30;83.50;;;;;;5038681;28;20021;-38
2022/09/25 21:03:42;;;;;;;4.38;2.30;;;11.30;83.70;;;;;;5071979;28;20028;-39
2022/09/25 21:06:16;;;;;;;3.45;1.92;;;11.30;84.10;;;;;;5073548;28;20021;-39
2022/09/25 21:08:42;;;;;;;10.63;2.38;;;11.30;84.30;;;;;;5073484;28;20025;-39
2022/09/25 21:11:10;;;;;;;5.43;2.50;;;11.30;84.30;;;;;;5073004;28;20464;-39
2022/09/25 21:13:36;;;;;;;3.90;2.58;;;11.30;84.10;;;;;;5071405;28;20024;-38
2022/09/25 21:16:04;;;;;;;7.25;3.38;;;11.30;84.00;;;;;;5072869;28;20025;-38
2022/09/25 21:18:30;;;;;;;8.65;3.05;;;11.30;84.10;;;;;;5073048;28;20025;-38
2022/09/25 21:21:06;;;;;;;4.28;2.83;;;11.30;84.00;;;;;;5073493;28;20030;-44
2022/09/25 21:23:32;;;;;;;6.70;2.20;;;11.30;83.90;;;;;;5073281;28;20020;-39
2022/09/25 21:26:12;;;;;;;7.55;2.60;;;11.30;84.20;;;;;;5072631;28;20028;-38
2022/09/25 21:28:40;;;;;;;4.03;2.75;;;11.20;84.40;;;;;;5073063;28;20123;-38
2022/09/25 21:31:12;;;;;;;6.60;2.92;;;11.30;84.60;;;;;;5072773;28;20024;-38
2022/09/25 21:33:39;;;;;;;8.80;3.15;;;11.30;84.60;;;;;;5073068;28;20024;-38
2022/09/25 21:36:07;;;;;;;3.63;2.50;;;11.20;84.40;;;;;;5073636;28;20104;-38
2022/09/25 21:38:33;;;;;;;10.18;2.90;;;11.10;84.90;;;;;;5072582;28;20533;-38
2022/09/25 21:41:02;;;;;;;9.00;2.88;;;11.10;85.30;;;;;;5072627;28;20040;-38
2022/09/25 21:43:32;;;;;;;4.47;2.47;;;11.10;85.80;;;;;;5072630;28;20021;-38
2022/09/25 21:46:05;;;;;;;7.03;3.53;;;11.10;85.60;;;;;;5071277;28;20112;-38
2022/09/25 21:48:33;;;;;;;6.93;3.40;;;11.20;85.30;;;;;;5072750;28;20029;-38
2022/09/25 21:51:00;;;;;;;4.28;3.38;;;11.10;84.90;;;;;;5073261;28;20430;-38
2022/09/25 21:53:26;;;;;;;6.05;3.92;;;11.20;85.10;;;;;;5072446;28;20021;-38
2022/09/25 21:56:06;;;;;;;6.70;4.15;;;11.10;85.30;;;;;;5072693;28;20082;-38
2022/09/25 21:58:32;;;;;;;6.70;3.70;;;11.00;85.50;;;;;;5072866;28;20055;-38
2022/09/25 22:01:04;;;;;;;10.13;3.55;;;11.00;85.60;;;;;;5072146;28;20040;-38
2022/09/25 22:03:32;;;;;;;6.75;3.95;;;11.00;85.50;;;;;;5072705;28;20437;-38
2022/09/25 22:06:03;;;;;;;7.72;3.42;;;11.00;85.40;;;;;;5072413;28;20051;-38
2022/09/25 22:08:30;;;;;;;11.65;4.90;;;11.00;85.30;;;;;;5072920;28;20021;-38
2022/09/25 22:10:57;;;;;;;9.23;3.20;;;10.80;85.60;;;;;;5071158;28;20361;-39
2022/09/25 22:13:24;;;;;;;9.60;4.13;;;10.80;85.90;;;;;;5072757;28;20108;-39
2022/09/25 22:15:57;;;;;;;9.43;4.88;;;10.80;86.00;;;;;;5072523;28;20542;-38
2022/09/25 22:18:22;;;;;;;12.18;5.30;;;10.80;85.90;;;;;;5072554;28;20028;-40
2022/09/25 22:20:51;;;;;;;9.60;4.45;;;10.80;86.00;;;;;;5072412;28;20434;-38
2022/09/25 22:23:17;;;;;;;10.93;4.78;;;10.80;85.90;;;;;;5072387;28;20028;-38
2022/09/25 22:25:42;;;;;;;8.55;4.63;;;10.80;86.10;;;;;;5072577;28;20376;-38
2022/09/25 22:28:08;;;;;;;6.18;4.53;;;10.70;86.10;;;;;;5076123;28;20029;-38
2022/09/25 22:30:34;;;;;;;13.70;5.30;;;10.60;86.30;;;;;;5076290;28;20032;-38
2022/09/25 22:33:00;;;;;;;10.40;5.47;;;10.60;86.60;;;;;;5075947;28;20545;-38
2022/09/25 22:35:25;;;;;;;10.05;4.53;;;10.60;86.80;;;;;;5075965;28;20024;-38
2022/09/25 22:37:51;;;;;;;10.07;4.35;;;10.60;86.70;;;;;;5075845;28;20024;-38
2022/09/25 22:40:17;;;;;;;11.50;4.93;;;10.50;86.70;;;;;;5075580;28;20125;-38
2022/09/25 22:42:43;;;;;;;8.82;4.70;;;10.50;86.80;;;;;;5075710;28;20044;-38
2022/09/25 22:45:08;;;;;;;11.70;5.15;;;10.50;87.00;;;;;;5075957;28;20029;-38
2022/09/25 22:47:34;;;;;;;6.35;4.28;;;10.50;87.00;;;;;;5076045;28;20024;-38
2022/09/25 22:50:00;;;;;;;9.38;4.55;;;10.50;87.20;;;;;;5075780;28;20411;-38
2022/09/25 22:52:25;;;;;;;9.38;3.72;;;10.60;87.30;;;;;;5075684;28;20122;-38
2022/09/25 22:54:52;;;;;;;8.77;4.95;;;10.50;87.00;;;;;;5075648;28;20457;-39
2022/09/25 22:57:18;;;;;;;10.38;4.40;;;10.50;87.10;;;;;;5075574;28;20385;-39
2022/09/25 22:59:44;;;;;;;8.60;4.38;;;10.50;87.10;;;;;;5075378;28;20029;-38
2022/09/25 23:02:09;;;;;;;9.30;4.97;;;10.50;86.80;;;;;;5075722;28;20025;-38
2022/09/25 23:04:35;;;;;;;13.85;5.30;;;10.50;86.80;;;;;;5075361;28;20460;-38
2022/09/25 23:07:00;;;;;;;7.50;4.60;;;10.60;86.20;;;;;;5076005;28;20106;-38
2022/09/25 23:09:26;;;;;;;7.80;4.28;;;10.60;86.40;;;;;;5075441;28;20052;-38
2022/09/25 23:11:53;;;;;;;14.85;4.82;;;10.70;86.20;;;;;;5075628;28;20029;-38
2022/09/25 23:14:23;;;;;;;11.15;4.80;;;10.70;85.80;;;;;;5075440;28;20024;-38
2022/09/25 23:16:50;;;;;;;8.55;4.30;;;10.70;85.80;;;;;;5075759;28;20214;-38
2022/09/25 23:19:16;;;;;;;12.18;5.03;;;10.60;86.00;;;;;;5075335;28;20097;-38
2022/09/25 23:21:42;;;;;;;7.68;4.70;;;10.40;86.30;;;;;;5075102;28;20033;-37
2022/09/25 23:24:12;;;;;;;14.50;4.32;;;10.30;86.70;;;;;;5075324;28;20025;-37
2022/09/25 23:26:38;;;;;;;12.83;6.30;;;10.40;87.00;;;;;;5073829;28;20077;-38
2022/09/25 23:29:03;;;;;;;7.78;4.57;;;10.40;86.80;;;;;;5074997;28;20426;-38
2022/09/25 23:31:31;;;;;;;12.32;4.82;;;10.50;86.80;;;;;;5075261;28;20047;-38
2022/09/25 23:34:01;;;;;;;10.85;5.10;;;10.60;86.70;;;;;;5074188;28;20198;-38
2022/09/25 23:36:27;;;;;;;9.13;5.05;;;10.60;86.20;;;;;;5074932;28;20426;-39
2022/09/25 23:38:54;;;;;;;10.50;4.40;;;10.60;86.00;;;;;;5074435;28;20100;-40
2022/09/25 23:41:29;;;;;;;13.57;4.43;;;10.70;86.20;;;;;;5074829;28;20021;-39
2022/09/25 23:43:55;;;;;;;11.68;3.90;;;10.60;86.10;;;;;;5074725;28;20056;-39
2022/09/25 23:46:23;;;;;;;7.10;4.30;;;10.80;85.70;;;;;;5075063;28;20028;-40
2022/09/25 23:48:49;;;;;;;6.00;3.40;;;10.80;85.10;;;;;;5074733;28;20021;-38
2022/09/25 23:51:16;;;;;;;8.98;3.22;;;10.80;85.10;;;;;;5074644;28;20051;-38
2022/09/25 23:53:42;;;;;;;5.28;3.95;;;10.90;84.80;;;;;;5074899;28;20027;-37
2022/09/25 23:56:20;;;;;;;8.00;3.85;;;10.80;84.90;;;;;;5074385;28;20100;-37
2022/09/25 23:58:47;;;;;;;8.63;3.78;;;10.80;85.00;;;;;;5074366;28;20103;-39
